Time;durP1;ratioP1;P1;durP2;ratioP2;P2;SDS_P1;SDS_P2;PMS_P1;PMS_P2;Temp;Humidity;BMP_temperature;BMP_pressure;BME280_temperature;BME280_humidity;BME280_pressure;Samples;Min_cycle;Max_cycle;Signal;HPM_P1;HPM_P2
2023/05/05 00:01:10;;;;;;;6.55;4.43;;;18.20;76.20;;;;;;5001842;28;20104;-88
2023/05/05 00:03:36;;;;;;;8.18;4.97;;;18.20;76.30;;;;;;5015151;28;20014;-87
2023/05/05 00:06:02;;;;;;;8.68;4.53;;;18.20;76.50;;;;;;4999187;28;20026;-83
2023/05/05 00:08:30;;;;;;;8.60;4.97;;;18.20;76.40;;;;;;4999207;28;20018;-87
2023/05/05 00:10:56;;;;;;;6.72;3.85;;;18.30;76.40;;;;;;5010269;28;20072;-86
2023/05/05 00:13:22;;;;;;;5.75;4.40;;;18.30;76.50;;;;;;5019131;28;20060;-87
2023/05/05 00:15:49;;;;;;;10.00;4.70;;;18.30;76.90;;;;;;5020242;28;20030;-84
2023/05/05 00:18:16;;;;;;;4.68;4.18;;;18.30;77.00;;;;;;5009090;28;20030;-86
2023/05/05 00:20:43;;;;;;;10.05;4.50;;;18.20;77.10;;;;;;5026832;28;20025;-83
2023/05/05 00:23:09;;;;;;;7.82;4.80;;;18.20;77.20;;;;;;5031677;28;20029;-87
2023/05/05 00:25:34;;;;;;;7.75;4.63;;;18.20;77.50;;;;;;5005467;28;20043;-88
2023/05/05 00:28:00;;;;;;;8.30;4.30;;;18.20;77.70;;;;;;5019521;28;20025;-86
2023/05/05 00:30:29;;;;;;;7.75;4.90;;;18.20;77.70;;;;;;5002947;28;20083;-81
2023/05/05 00:32:55;;;;;;;8.55;4.65;;;18.20;77.50;;;;;;5017094;28;20262;-84
2023/05/05 00:35:20;;;;;;;7.93;4.75;;;18.30;77.80;;;;;;5012649;28;20073;-82
2023/05/05 00:37:46;;;;;;;6.72;4.47;;;18.20;77.60;;;;;;5013423;28;20448;-78
2023/05/05 00:40:12;;;;;;;4.82;4.30;;;18.20;77.90;;;;;;4994297;28;20022;-78
2023/05/05 00:42:46;;;;;;;8.88;4.80;;;18.20;79.10;;;;;;4999103;28;20424;-78
2023/05/05 00:45:13;;;;;;;13.80;5.50;;;18.20;78.50;;;;;;5011540;28;20485;-78
2023/05/05 00:47:41;;;;;;;7.25;4.68;;;18.20;78.70;;;;;;5011834;28;20109;-78
2023/05/05 00:50:08;;;;;;;10.65;4.68;;;18.30;78.70;;;;;;4997669;28;20397;-79
2023/05/05 00:52:41;;;;;;;12.43;5.18;;;18.30;79.10;;;;;;5021051;28;20018;-79
2023/05/05 00:55:08;;;;;;;5.57;4.70;;;18.20;79.20;;;;;;5038908;28;20009;-80
2023/05/05 00:57:34;;;;;;;7.28;5.00;;;18.20;79.60;;;;;;5021158;28;20025;-80
2023/05/05 01:00:01;;;;;;;8.05;5.28;;;18.20;79.80;;;;;;5038975;28;20057;-79
2023/05/05 01:02:26;;;;;;;6.60;4.57;;;18.20;80.40;;;;;;5020823;28;20042;-79
2023/05/05 01:04:54;;;;;;;10.80;5.55;;;18.20;80.60;;;;;;4996356;28;20033;-79
2023/05/05 01:07:39;;;;;;;12.52;5.38;;;18.20;80.80;;;;;;4993743;28;20142;-81
2023/05/05 01:10:24;;;;;;;7.40;5.65;;;18.20;81.10;;;;;;5012295;28;20559;-78
2023/05/05 01:13:01;;;;;;;6.47;4.97;;;18.10;81.00;;;;;;5011993;28;20080;-78
2023/05/05 01:15:34;;;;;;;8.13;5.20;;;18.10;81.40;;;;;;5012069;28;20029;-79
2023/05/05 01:18:21;;;;;;;9.45;5.63;;;18.10;81.70;;;;;;5009912;28;20079;-81
2023/05/05 01:21:00;;;;;;;9.73;5.32;;;18.10;81.60;;;;;;5009359;28;20029;-79
2023/05/05 01:23:45;;;;;;;8.50;5.90;;;18.00;82.30;;;;;;4997371;28;20366;-78
2023/05/05 01:26:30;;;;;;;7.22;5.53;;;18.00;82.50;;;;;;5010729;28;20855;-78
2023/05/05 01:28:58;;;;;;;6.13;5.45;;;18.00;82.50;;;;;;5012308;28;20017;-78
2023/05/05 01:31:50;;;;;;;6.97;5.50;;;18.00;82.30;;;;;;5013591;28;20072;-78
2023/05/05 01:34:22;;;;;;;7.38;5.95;;;18.10;82.40;;;;;;4999477;28;20045;-81
2023/05/05 01:36:55;;;;;;;7.65;5.50;;;18.10;82.50;;;;;;5012675;28;20014;-78
2023/05/05 01:39:29;;;;;;;10.73;6.00;;;18.10;82.40;;;;;;5011114;28;20018;-78
2023/05/05 01:41:58;;;;;;;14.05;5.88;;;18.10;82.50;;;;;;5013809;28;20415;-78
2023/05/05 01:44:26;;;;;;;8.98;5.45;;;18.20;82.70;;;;;;5008676;28;20037;-78
2023/05/05 01:46:53;;;;;;;9.05;5.55;;;18.20;83.10;;;;;;4995596;28;20030;-79
2023/05/05 01:49:19;;;;;;;9.43;5.97;;;18.20;83.30;;;;;;5010622;28;20149;-79
2023/05/05 01:51:46;;;;;;;8.25;6.15;;;18.20;83.60;;;;;;4992516;28;20433;-79
2023/05/05 01:54:14;;;;;;;23.05;7.05;;;18.20;84.30;;;;;;5011953;28;20041;-78
2023/05/05 01:56:41;;;;;;;12.73;6.88;;;18.20;85.70;;;;;;5008532;28;20025;-78
2023/05/05 01:59:08;;;;;;;11.70;6.97;;;18.20;85.40;;;;;;5010540;28;20021;-81
2023/05/05 02:01:43;;;;;;;17.33;7.00;;;18.20;85.90;;;;;;5011072;28;20049;-86
2023/05/05 02:04:09;;;;;;;12.65;7.53;;;18.10;86.30;;;;;;4998590;28;20095;-81
2023/05/05 02:06:38;;;;;;;11.30;7.93;;;18.10;86.70;;;;;;5012376;28;20036;-78
2023/05/05 02:09:05;;;;;;;15.52;8.48;;;18.10;87.10;;;;;;5010525;28;20506;-78
2023/05/05 02:11:32;;;;;;;18.15;8.77;;;18.00;87.60;;;;;;4992277;28;20064;-78
2023/05/05 02:13:59;;;;;;;14.38;9.25;;;18.00;88.20;;;;;;4993547;28;20065;-79
2023/05/05 02:16:25;;;;;;;15.48;10.30;;;17.90;88.80;;;;;;5010822;28;20150;-78
2023/05/05 02:18:53;;;;;;;14.85;9.40;;;17.90;89.30;;;;;;4994697;28;20029;-82
2023/05/05 02:21:19;;;;;;;16.35;10.55;;;17.90;89.80;;;;;;5011852;28;20030;-84
2023/05/05 02:23:50;;;;;;;17.73;10.07;;;17.90;90.10;;;;;;4999527;28;20797;-86
2023/05/05 02:26:18;;;;;;;18.35;10.30;;;17.80;90.40;;;;;;5013442;28;20026;-86
2023/05/05 02:29:06;;;;;;;16.75;10.98;;;17.80;90.50;;;;;;5015216;28;20022;-86
2023/05/05 02:31:38;;;;;;;18.52;10.82;;;17.80;90.70;;;;;;4998863;28;20069;-86
2023/05/05 02:34:06;;;;;;;13.82;10.73;;;17.80;90.80;;;;;;4980474;28;20052;-82
2023/05/05 02:36:34;;;;;;;19.30;11.25;;;17.90;90.90;;;;;;5014973;28;20060;-86
2023/05/05 02:39:06;;;;;;;17.25;11.65;;;17.90;91.10;;;;;;5003115;28;20547;-89
2023/05/05 02:41:33;;;;;;;24.95;12.25;;;17.90;91.20;;;;;;5009216;28;20416;-83
2023/05/05 02:44:04;;;;;;;22.50;11.60;;;17.80;91.50;;;;;;5023495;28;20117;-86
2023/05/05 02:46:30;;;;;;;18.17;12.80;;;17.80;91.80;;;;;;5020478;28;20013;-86
2023/05/05 02:48:58;;;;;;;17.60;12.55;;;17.80;92.00;;;;;;4998853;28;20129;-84
2023/05/05 02:51:24;;;;;;;20.15;12.73;;;17.80;92.10;;;;;;5012191;28;20029;-83
2023/05/05 02:53:55;;;;;;;22.15;12.32;;;17.70;92.40;;;;;;5012923;28;20128;-86
2023/05/05 02:56:41;;;;;;;22.98;13.18;;;17.60;92.70;;;;;;5011226;28;20041;-86
2023/05/05 02:59:38;;;;;;;18.20;13.20;;;17.60;92.80;;;;;;5013072;28;20472;-80
2023/05/05 03:02:06;;;;;;;22.95;13.50;;;17.60;92.90;;;;;;4994010;28;20029;-86
2023/05/05 03:04:39;;;;;;;18.67;13.10;;;17.50;93.30;;;;;;5014442;28;20563;-85
2023/05/05 03:07:23;;;;;;;22.13;14.38;;;17.50;93.60;;;;;;5026752;28;20029;-86
2023/05/05 03:10:07;;;;;;;27.52;15.07;;;17.50;93.70;;;;;;5014596;28;20478;-86
2023/05/05 03:12:56;;;;;;;26.90;14.30;;;17.50;93.50;;;;;;4995165;28;20037;-86
2023/05/05 03:15:28;;;;;;;24.15;14.30;;;17.50;93.60;;;;;;4999178;28;20042;-82
2023/05/05 03:17:55;;;;;;;23.97;13.53;;;17.40;94.10;;;;;;5013038;28;20014;-86
2023/05/05 03:20:21;;;;;;;20.65;14.13;;;17.40;94.00;;;;;;5010911;28;20029;-79
2023/05/05 03:22:47;;;;;;;21.92;13.45;;;17.40;94.00;;;;;;5007286;28;20017;-79
2023/05/05 03:25:13;;;;;;;27.15;13.90;;;17.40;94.20;;;;;;4991086;28;20800;-78
2023/05/05 03:27:39;;;;;;;21.35;14.73;;;17.30;94.70;;;;;;5005551;28;20026;-80
2023/05/05 03:30:08;;;;;;;24.88;15.15;;;17.30;95.00;;;;;;4992745;28;20427;-79
2023/05/05 03:32:34;;;;;;;19.67;13.57;;;17.30;95.00;;;;;;4995097;28;20722;-78
2023/05/05 03:35:02;;;;;;;21.90;13.93;;;17.30;95.20;;;;;;5009348;28;20122;-78
2023/05/05 03:37:30;;;;;;;28.98;14.68;;;17.20;95.70;;;;;;5011438;28;20073;-86
2023/05/05 03:39:55;;;;;;;22.25;14.40;;;17.20;95.80;;;;;;4999091;28;20029;-87
2023/05/05 03:42:21;;;;;;;25.00;14.02;;;17.20;96.10;;;;;;5037775;28;20064;-81
2023/05/05 03:44:47;;;;;;;22.08;13.75;;;17.10;96.00;;;;;;5022874;28;20020;-81
2023/05/05 03:47:12;;;;;;;21.38;13.85;;;17.10;96.40;;;;;;5037876;28;20086;-84
2023/05/05 03:49:38;;;;;;;23.25;14.88;;;17.00;96.80;;;;;;5036342;28;20025;-83
2023/05/05 03:52:03;;;;;;;23.20;15.82;;;16.90;97.30;;;;;;5028272;28;20097;-88
2023/05/05 03:54:30;;;;;;;25.27;16.17;;;16.80;98.00;;;;;;5016313;28;20038;-87
2023/05/05 03:56:55;;;;;;;26.50;15.90;;;16.70;98.20;;;;;;5008592;28;20032;-81
2023/05/05 03:59:21;;;;;;;28.67;16.40;;;16.60;98.90;;;;;;5010398;28;20013;-81
2023/05/05 04:01:49;;;;;;;32.83;16.48;;;16.50;99.00;;;;;;4993150;28;20025;-80
2023/05/05 04:04:22;;;;;;;29.38;16.65;;;16.50;99.60;;;;;;5008528;28;20022;-81
2023/05/05 04:06:47;;;;;;;;;;;16.50;99.90;;;;;;4994594;28;20029;-78
2023/05/05 04:09:13;;;;;;;29.17;17.27;;;16.40;99.90;;;;;;4997610;28;19916;-83
2023/05/05 04:11:46;;;;;;;33.00;17.17;;;16.40;99.90;;;;;;5016299;28;20020;-87
2023/05/05 04:14:11;;;;;;;29.85;16.27;;;16.50;99.90;;;;;;5014872;28;20044;-87
2023/05/05 04:16:37;;;;;;;33.05;17.15;;;16.50;99.90;;;;;;4998812;28;20018;-85
2023/05/05 04:19:02;;;;;;;29.83;16.95;;;16.60;99.90;;;;;;5016977;28;20014;-88
2023/05/05 04:21:30;;;;;;;30.48;17.38;;;16.50;99.90;;;;;;4999642;28;20117;-83
2023/05/05 04:23:57;;;;;;;33.78;17.02;;;16.60;99.90;;;;;;5018426;28;20055;-84
2023/05/05 04:26:22;;;;;;;28.58;17.17;;;16.60;99.90;;;;;;5037968;28;20044;-82
2023/05/05 04:28:48;;;;;;;26.17;16.73;;;16.60;99.90;;;;;;5019922;28;20025;-86
2023/05/05 04:31:21;;;;;;;25.50;16.60;;;16.70;99.90;;;;;;4999384;28;20017;-86
2023/05/05 04:33:47;;;;;;;;;;;16.60;99.90;;;;;;5021025;28;20108;-85
2023/05/05 04:36:12;;;;;;;26.52;16.63;;;16.60;99.90;;;;;;5017416;28;20083;-87
2023/05/05 04:38:38;;;;;;;27.77;16.98;;;16.50;99.90;;;;;;5013966;28;20051;-84
2023/05/05 04:41:05;;;;;;;33.13;16.77;;;16.50;99.90;;;;;;5013667;28;20555;-88
2023/05/05 04:43:30;;;;;;;29.75;17.70;;;16.60;99.90;;;;;;5016269;28;20116;-86
2023/05/05 04:45:56;;;;;;;26.52;17.30;;;16.60;99.90;;;;;;5014623;28;20101;-85
2023/05/05 04:48:22;;;;;;;25.73;15.93;;;16.60;99.90;;;;;;4998880;28;20029;-87
2023/05/05 04:50:50;;;;;;;31.35;16.38;;;16.60;99.90;;;;;;5015135;28;20179;-87
2023/05/05 04:53:16;;;;;;;29.60;17.17;;;16.70;99.90;;;;;;5016341;28;20074;-90
2023/05/05 04:55:43;;;;;;;30.08;17.23;;;16.70;99.90;;;;;;4996278;28;20361;-78
2023/05/05 04:58:08;;;;;;;25.55;16.55;;;16.80;99.90;;;;;;5013558;28;20026;-79
2023/05/05 05:00:37;;;;;;;25.10;16.27;;;16.80;99.90;;;;;;5011723;28;20087;-78
2023/05/05 05:03:03;;;;;;;24.25;15.18;;;16.90;99.90;;;;;;5010221;28;20021;-79
2023/05/05 05:05:29;;;;;;;27.95;16.25;;;16.90;99.90;;;;;;4997956;28;20243;-78
2023/05/05 05:07:54;;;;;;;27.17;16.23;;;16.90;99.90;;;;;;5014237;28;20029;-78
2023/05/05 05:10:20;;;;;;;25.48;15.63;;;17.00;99.90;;;;;;5013864;28;20032;-78
2023/05/05 05:12:47;;;;;;;25.80;15.10;;;17.00;99.90;;;;;;5012100;28;20014;-79
2023/05/05 05:15:13;;;;;;;25.73;15.25;;;17.00;99.90;;;;;;4993160;28;20566;-80
2023/05/05 05:17:38;;;;;;;20.00;13.95;;;17.10;99.90;;;;;;5012068;28;20038;-79
2023/05/05 05:20:05;;;;;;;23.00;13.68;;;17.20;99.90;;;;;;5012622;28;20025;-80
2023/05/05 05:22:31;;;;;;;24.42;16.08;;;17.30;99.90;;;;;;5012117;28;20041;-80
2023/05/05 05:24:57;;;;;;;25.17;15.10;;;17.30;99.90;;;;;;5009344;28;20021;-80
2023/05/05 05:27:22;;;;;;;24.77;14.57;;;17.40;99.90;;;;;;4994466;28;20107;-79
2023/05/05 05:29:50;;;;;;;21.25;14.02;;;17.40;99.90;;;;;;5010151;28;20116;-79
2023/05/05 05:32:16;;;;;;;20.83;13.63;;;17.50;99.90;;;;;;4992013;28;20026;-80
2023/05/05 05:34:47;;;;;;;21.40;14.15;;;17.50;99.90;;;;;;5012848;28;20102;-79
2023/05/05 05:37:15;;;;;;;20.02;13.02;;;17.60;99.90;;;;;;5009230;28;20719;-79
2023/05/05 05:39:41;;;;;;;21.02;12.35;;;17.70;99.90;;;;;;4993795;28;20129;-80
2023/05/05 05:42:06;;;;;;;18.83;11.70;;;17.70;99.90;;;;;;4992493;28;20112;-80
2023/05/05 05:44:32;;;;;;;18.73;11.02;;;17.80;99.90;;;;;;5015126;28;20080;-79
2023/05/05 05:46:58;;;;;;;19.10;10.20;;;17.80;99.90;;;;;;4993823;28;20026;-80
2023/05/05 05:49:26;;;;;;;16.70;10.25;;;17.80;99.90;;;;;;5014532;28;20449;-79
2023/05/05 05:51:51;;;;;;;17.98;10.23;;;17.90;99.90;;;;;;5002898;28;20075;-79
2023/05/05 05:54:17;;;;;;;13.48;8.70;;;17.80;99.90;;;;;;5012480;28;20029;-80
2023/05/05 05:56:42;;;;;;;11.95;7.95;;;17.70;99.90;;;;;;5000989;28;20022;-80
2023/05/05 05:59:09;;;;;;;11.93;8.35;;;17.70;99.90;;;;;;5012216;28;20052;-80
2023/05/05 06:01:34;;;;;;;11.63;7.43;;;17.80;99.90;;;;;;5015453;28;20026;-79
2023/05/05 06:04:00;;;;;;;9.75;7.22;;;17.80;99.90;;;;;;5012407;28;20083;-79
2023/05/05 06:06:26;;;;;;;11.35;6.88;;;17.90;99.90;;;;;;5017357;28;20026;-80
2023/05/05 06:08:52;;;;;;;11.63;6.88;;;17.90;99.90;;;;;;5013405;28;20021;-79
2023/05/05 06:11:18;;;;;;;11.82;6.28;;;17.90;99.90;;;;;;4990090;28;20077;-80
2023/05/05 06:13:43;;;;;;;11.70;7.15;;;17.80;99.90;;;;;;5014414;28;20022;-79
2023/05/05 06:16:09;;;;;;;10.48;6.30;;;17.90;99.90;;;;;;5015226;28;20038;-79
2023/05/05 06:18:34;;;;;;;12.38;6.15;;;17.90;99.90;;;;;;5015541;28;20040;-88
2023/05/05 06:21:01;;;;;;;9.57;7.07;;;18.00;99.90;;;;;;5016669;28;20400;-80
2023/05/05 06:23:29;;;;;;;10.10;6.30;;;18.00;99.90;;;;;;5011795;28;20461;-79
2023/05/05 06:25:57;;;;;;;8.55;6.15;;;17.90;99.90;;;;;;5011786;28;20480;-79
2023/05/05 06:28:25;;;;;;;11.10;7.20;;;18.00;99.90;;;;;;5014026;28;20025;-79
2023/05/05 06:30:51;;;;;;;8.52;6.40;;;18.10;99.90;;;;;;4996992;28;20033;-79
2023/05/05 06:33:17;;;;;;;15.32;6.60;;;18.00;99.90;;;;;;5014698;28;20032;-79
2023/05/05 06:35:42;;;;;;;10.20;7.32;;;18.00;99.90;;;;;;5013197;28;20037;-80
2023/05/05 06:38:14;;;;;;;8.80;6.88;;;18.00;99.90;;;;;;5014899;28;20109;-79
2023/05/05 06:40:40;;;;;;;14.60;7.45;;;18.10;99.90;;;;;;5012652;28;20026;-79
2023/05/05 06:43:06;;;;;;;15.93;8.00;;;18.10;99.90;;;;;;5005049;28;20637;-79
2023/05/05 06:45:34;;;;;;;11.63;7.38;;;18.20;99.90;;;;;;5003778;28;20091;-81
2023/05/05 06:48:00;;;;;;;15.02;8.68;;;18.10;99.90;;;;;;4993269;28;20640;-78
2023/05/05 06:50:28;;;;;;;15.35;7.40;;;18.20;99.90;;;;;;5001157;28;20083;-78
2023/05/05 06:52:53;;;;;;;10.00;7.13;;;18.30;99.90;;;;;;4996213;28;20625;-78
2023/05/05 06:55:19;;;;;;;10.43;7.63;;;18.30;99.90;;;;;;5015893;28;20484;-81
2023/05/05 06:57:45;;;;;;;13.32;7.82;;;18.30;99.90;;;;;;5015546;28;20052;-78
2023/05/05 07:00:12;;;;;;;14.82;8.32;;;18.30;99.90;;;;;;5005734;28;20449;-81
2023/05/05 07:02:40;;;;;;;14.30;8.02;;;18.30;99.90;;;;;;5015716;28;20017;-81
2023/05/05 07:05:06;;;;;;;13.43;7.40;;;18.40;99.90;;;;;;5014937;28;20021;-80
2023/05/05 07:07:32;;;;;;;12.70;7.85;;;18.50;99.90;;;;;;5013600;28;20338;-80
2023/05/05 07:09:57;;;;;;;12.80;7.72;;;18.70;99.90;;;;;;5002863;28;20134;-82
2023/05/05 07:12:27;;;;;;;13.38;8.70;;;18.80;99.90;;;;;;4997012;28;20028;-79
2023/05/05 07:14:53;;;;;;;17.42;8.18;;;18.80;99.90;;;;;;5012246;28;20038;-79
2023/05/05 07:17:22;;;;;;;22.17;9.00;;;18.80;99.90;;;;;;5001994;28;20033;-79
2023/05/05 07:19:50;;;;;;;14.02;8.50;;;18.70;99.90;;;;;;4996778;28;20468;-80
2023/05/05 07:22:15;;;;;;;16.63;8.43;;;18.80;99.90;;;;;;5002489;28;20033;-79
2023/05/05 07:24:41;;;;;;;13.95;9.00;;;18.80;99.90;;;;;;5011340;28;20108;-80
2023/05/05 07:27:06;;;;;;;11.85;8.70;;;18.90;99.90;;;;;;5010224;28;20065;-79
2023/05/05 07:29:32;;;;;;;15.18;8.57;;;19.00;99.90;;;;;;5003319;28;20092;-79
2023/05/05 07:32:00;;;;;;;14.82;8.05;;;19.00;99.90;;;;;;5000744;28;20018;-80
2023/05/05 07:34:26;;;;;;;11.15;8.57;;;19.20;99.90;;;;;;5002813;28;20034;-80
2023/05/05 07:36:53;;;;;;;13.65;8.77;;;19.20;99.90;;;;;;4996522;28;20063;-79
2023/05/05 07:39:21;;;;;;;15.18;8.45;;;19.10;99.90;;;;;;5015877;28;20036;-79
2023/05/05 07:41:47;;;;;;;20.13;9.48;;;19.20;99.90;;;;;;5014594;28;20061;-79
2023/05/05 07:44:12;;;;;;;16.67;9.30;;;19.40;99.90;;;;;;5013351;28;20063;-79
2023/05/05 07:46:38;;;;;;;14.18;8.20;;;19.50;99.90;;;;;;5012245;28;20466;-79
2023/05/05 07:49:04;;;;;;;15.65;9.15;;;19.50;99.50;;;;;;5013213;28;20030;-81
2023/05/05 07:51:30;;;;;;;13.93;7.57;;;19.70;99.90;;;;;;5015573;28;20159;-79
2023/05/05 07:53:56;;;;;;;13.73;9.57;;;19.80;99.10;;;;;;5007033;28;20094;-79
2023/05/05 07:56:22;;;;;;;13.20;8.05;;;20.10;99.00;;;;;;5005200;28;20473;-79
2023/05/05 07:58:47;;;;;;;13.73;8.52;;;20.30;98.60;;;;;;4997344;28;20029;-80
2023/05/05 08:01:13;;;;;;;11.05;7.25;;;20.20;98.40;;;;;;5016691;28;20057;-81
2023/05/05 08:03:38;;;;;;;12.38;7.35;;;20.30;97.80;;;;;;5018799;28;20029;-80
2023/05/05 08:06:14;;;;;;;14.02;6.95;;;20.50;98.00;;;;;;5018116;28;20041;-79
2023/05/05 08:08:40;;;;;;;10.85;7.13;;;20.60;97.20;;;;;;5003009;28;20038;-80
2023/05/05 08:11:06;;;;;;;16.45;7.90;;;20.80;97.60;;;;;;5015023;28;20037;-80
2023/05/05 08:13:33;;;;;;;20.00;9.07;;;21.00;96.50;;;;;;5014604;28;20026;-82
2023/05/05 08:16:01;;;;;;;14.65;7.07;;;21.20;96.40;;;;;;5005504;28;20095;-81
2023/05/05 08:18:29;;;;;;;13.55;7.70;;;21.20;96.20;;;;;;5003725;28;20372;-80
2023/05/05 08:20:54;;;;;;;9.98;7.32;;;21.20;96.00;;;;;;5003077;28;20038;-80
2023/05/05 08:23:20;;;;;;;13.32;8.70;;;21.30;96.00;;;;;;5018198;28;20017;-80
2023/05/05 08:25:46;;;;;;;10.63;7.40;;;21.30;95.80;;;;;;5004019;28;20179;-80
2023/05/05 08:28:14;;;;;;;11.75;7.63;;;21.60;95.20;;;;;;5017448;28;20021;-80
2023/05/05 08:30:43;;;;;;;13.93;8.27;;;21.60;94.90;;;;;;5014803;28;20030;-79
2023/05/05 08:33:08;;;;;;;9.48;6.88;;;21.40;95.10;;;;;;5015249;28;20021;-80
2023/05/05 08:35:34;;;;;;;10.85;6.47;;;21.60;94.60;;;;;;5017620;28;20448;-80
2023/05/05 08:37:59;;;;;;;10.65;5.93;;;21.80;93.50;;;;;;5012444;28;20037;-80
2023/05/05 08:40:35;;;;;;;7.55;5.68;;;22.20;95.20;;;;;;5011451;28;20087;-80
2023/05/05 08:43:03;;;;;;;11.95;6.35;;;22.80;92.60;;;;;;4997530;28;20030;-80
2023/05/05 08:45:29;;;;;;;10.13;6.10;;;23.30;92.10;;;;;;4999396;28;20391;-79
2023/05/05 08:48:03;;;;;;;6.78;5.05;;;23.90;91.50;;;;;;5018221;28;20074;-80
2023/05/05 08:50:29;;;;;;;10.27;5.93;;;24.10;86.90;;;;;;5018218;28;20026;-79
2023/05/05 08:53:14;;;;;;;8.55;5.68;;;23.80;87.50;;;;;;5017236;28;20798;-79
2023/05/05 08:55:55;;;;;;;11.93;5.90;;;23.90;90.00;;;;;;4984860;28;20045;-80
2023/05/05 08:58:24;;;;;;;7.65;5.72;;;24.40;89.40;;;;;;5013319;28;20044;-79
2023/05/05 09:00:50;;;;;;;8.05;6.35;;;24.50;85.60;;;;;;5018782;28;20022;-80
2023/05/05 09:03:16;;;;;;;10.30;6.18;;;24.70;85.30;;;;;;4999984;28;20033;-81
2023/05/05 09:05:46;;;;;;;8.90;6.82;;;25.00;86.40;;;;;;5003383;28;20025;-79
2023/05/05 09:08:12;;;;;;;10.75;6.07;;;25.40;83.50;;;;;;5002657;28;20029;-80
2023/05/05 09:10:41;;;;;;;9.43;6.18;;;25.50;78.90;;;;;;5015509;28;20360;-78
2023/05/05 09:13:07;;;;;;;10.07;5.85;;;26.00;81.70;;;;;;5013280;28;20033;-79
2023/05/05 09:15:33;;;;;;;7.60;4.75;;;26.30;78.80;;;;;;5015136;28;20033;-80
2023/05/05 09:18:00;;;;;;;6.38;5.78;;;26.50;77.60;;;;;;5012854;28;20018;-79
2023/05/05 09:20:36;;;;;;;8.38;5.88;;;26.70;74.90;;;;;;5016614;28;20578;-80
2023/05/05 09:23:14;;;;;;;7.80;4.97;;;26.60;75.90;;;;;;5015382;28;20025;-80
2023/05/05 09:25:42;;;;;;;16.15;7.55;;;26.70;74.00;;;;;;5016497;28;20033;-79
2023/05/05 09:28:13;;;;;;;6.18;5.57;;;26.40;75.40;;;;;;5002963;28;20116;-80
2023/05/05 09:30:41;;;;;;;8.48;5.80;;;26.20;75.20;;;;;;5016404;28;20033;-79
2023/05/05 09:33:07;;;;;;;8.90;5.65;;;26.00;74.80;;;;;;5002089;28;20525;-80
2023/05/05 09:35:53;;;;;;;10.98;6.47;;;25.80;74.70;;;;;;5010234;28;20129;-79
2023/05/05 09:38:20;;;;;;;8.23;6.07;;;25.80;76.50;;;;;;4994284;28;20053;-81
2023/05/05 09:40:48;;;;;;;9.98;6.82;;;25.40;76.10;;;;;;5014152;28;20038;-79
2023/05/05 09:43:18;;;;;;;8.80;5.85;;;25.10;77.30;;;;;;5014956;28;20018;-80
2023/05/05 09:45:44;;;;;;;9.30;5.82;;;25.20;79.10;;;;;;5015792;28;20326;-80
2023/05/05 09:48:28;;;;;;;9.02;5.50;;;25.30;76.10;;;;;;5011093;28;20477;-80
2023/05/05 09:50:55;;;;;;;10.10;5.82;;;25.50;76.30;;;;;;5011077;28;20436;-80
2023/05/05 09:53:21;;;;;;;8.63;5.97;;;25.80;76.50;;;;;;5001409;28;20152;-79
2023/05/05 09:55:56;;;;;;;9.07;5.47;;;25.80;75.00;;;;;;5006956;28;20077;-80
2023/05/05 09:58:26;;;;;;;8.13;5.43;;;25.80;74.30;;;;;;5012815;28;20105;-80
2023/05/05 10:00:52;;;;;;;6.65;5.97;;;25.60;75.80;;;;;;5014473;28;20034;-79
2023/05/05 10:03:18;;;;;;;6.15;4.70;;;25.10;74.60;;;;;;5012266;28;20397;-79
2023/05/05 10:05:49;;;;;;;11.38;5.70;;;24.80;77.00;;;;;;4999619;28;20119;-80
2023/05/05 10:08:15;;;;;;;7.10;5.00;;;24.60;78.70;;;;;;4993180;28;20025;-80
2023/05/05 10:10:54;;;;;;;7.95;4.63;;;24.70;76.80;;;;;;5008860;28;20047;-79
2023/05/05 10:13:22;;;;;;;7.60;4.05;;;24.80;75.30;;;;;;5014374;28;20560;-79
2023/05/05 10:15:52;;;;;;;5.35;3.75;;;25.20;74.80;;;;;;5008427;28;20393;-79
2023/05/05 10:18:23;;;;;;;5.13;4.13;;;25.40;73.10;;;;;;4999467;28;20032;-79
2023/05/05 10:21:02;;;;;;;3.40;2.47;;;24.80;72.50;;;;;;5010196;28;20026;-80
2023/05/05 10:24:06;;;;;;;8.50;3.35;;;24.50;74.00;;;;;;5010940;28;20037;-79
2023/05/05 10:26:37;;;;;;;10.30;5.15;;;24.50;74.20;;;;;;4990655;28;20049;-79
2023/05/05 10:29:16;;;;;;;7.70;3.72;;;24.50;75.20;;;;;;4992719;28;20064;-79
2023/05/05 10:31:48;;;;;;;5.45;3.75;;;24.70;74.10;;;;;;5009190;28;20033;-79
2023/05/05 10:34:25;;;;;;;6.07;4.03;;;24.70;73.20;;;;;;5009570;28;20017;-79
2023/05/05 10:36:54;;;;;;;7.13;3.13;;;24.70;73.60;;;;;;4993722;28;20057;-80
2023/05/05 10:39:21;;;;;;;5.60;3.33;;;24.60;73.50;;;;;;5008944;28;20406;-78
2023/05/05 10:41:48;;;;;;;4.55;3.55;;;24.80;74.00;;;;;;5013959;28;20022;-80
2023/05/05 10:44:15;;;;;;;10.60;5.63;;;25.00;74.50;;;;;;5013143;28;20029;-79
2023/05/05 10:46:41;;;;;;;6.53;4.50;;;25.20;74.80;;;;;;4998376;28;20108;-79
2023/05/05 10:49:19;;;;;;;10.32;5.43;;;24.90;72.00;;;;;;5011918;28;20026;-79
2023/05/05 10:52:08;;;;;;;10.60;5.82;;;24.90;74.00;;;;;;4990880;28;20802;-78
2023/05/05 10:55:01;;;;;;;6.28;5.15;;;24.80;75.30;;;;;;5009650;28;20094;-79
2023/05/05 11:00:39;;;;;;;8.35;4.22;;;24.90;74.10;;;;;;5011381;28;20030;-80
2023/05/05 11:03:18;;;;;;;8.10;5.03;;;24.60;72.80;;;;;;5151951;23;20085;-78
2023/05/05 11:06:02;;;;;;;5.80;4.63;;;24.20;74.10;;;;;;5007234;28;20047;-81
2023/05/05 11:08:32;;;;;;;4.13;3.00;;;24.20;75.20;;;;;;5025693;28;20036;-83
2023/05/05 11:10:58;;;;;;;5.30;3.95;;;24.30;73.90;;;;;;5055233;28;20048;-86
2023/05/05 11:13:24;;;;;;;12.68;4.18;;;24.50;74.10;;;;;;5048094;28;20042;-90
2023/05/05 11:16:00;;;;;;;6.35;2.80;;;24.80;73.30;;;;;;5031628;28;20563;-92
2023/05/05 11:18:39;;;;;;;4.72;2.60;;;24.70;71.30;;;;;;5021210;28;20584;-92
2023/05/05 11:21:17;;;;;;;8.38;3.30;;;24.20;72.10;;;;;;5158636;23;20141;-93
2023/05/05 11:23:48;;;;;;;5.43;3.38;;;23.90;73.10;;;;;;4979410;28;20341;-86
2023/05/05 11:26:15;;;;;;;5.38;3.75;;;23.70;74.10;;;;;;4967693;28;20069;-90
2023/05/05 11:28:56;;;;;;;6.40;3.60;;;23.90;74.90;;;;;;4981744;28;20031;-90
2023/05/05 11:31:22;;;;;;;10.60;6.35;;;23.90;75.30;;;;;;4993589;28;20026;-88
2023/05/05 11:33:48;;;;;;;11.40;5.25;;;24.00;76.90;;;;;;4970708;28;20716;-89
2023/05/05 11:36:15;;;;;;;7.40;4.60;;;24.20;76.80;;;;;;4978109;28;20417;-82
2023/05/05 11:39:00;;;;;;;8.65;4.18;;;24.30;75.00;;;;;;4989104;28;20039;-88
2023/05/05 11:41:41;;;;;;;7.68;4.50;;;24.50;76.00;;;;;;4990888;28;20026;-86
2023/05/05 11:44:28;;;;;;;5.40;4.25;;;24.70;74.90;;;;;;4983408;28;20094;-87
2023/05/05 11:46:56;;;;;;;8.40;5.65;;;24.70;74.10;;;;;;4980937;28;20042;-80
2023/05/05 11:49:38;;;;;;;10.57;6.10;;;24.50;76.00;;;;;;4973675;28;20026;-86
2023/05/05 11:52:08;;;;;;;9.57;6.15;;;24.50;76.60;;;;;;5113703;23;20081;-81
2023/05/05 11:54:35;;;;;;;9.68;6.00;;;24.30;76.80;;;;;;5005631;28;20040;-82
2023/05/05 11:57:06;;;;;;;7.00;5.43;;;24.20;78.00;;;;;;5015794;28;20034;-81
2023/05/05 11:59:33;;;;;;;9.27;5.70;;;24.10;77.70;;;;;;5015598;28;20044;-81
2023/05/05 12:01:59;;;;;;;12.10;6.32;;;24.10;78.40;;;;;;5003311;28;20018;-80
2023/05/05 12:04:25;;;;;;;11.35;5.88;;;23.80;77.50;;;;;;4997905;28;20361;-80
2023/05/05 12:06:51;;;;;;;11.52;6.28;;;23.50;79.00;;;;;;5019830;28;20039;-80
2023/05/05 12:09:22;;;;;;;14.23;6.18;;;23.40;80.60;;;;;;5003946;28;20037;-80
2023/05/05 12:11:48;;;;;;;9.43;6.85;;;23.10;81.50;;;;;;5005948;28;20437;-80
2023/05/05 12:14:13;;;;;;;11.00;6.55;;;23.00;83.20;;;;;;5002946;28;20022;-80
2023/05/05 12:16:39;;;;;;;9.27;5.93;;;22.90;83.30;;;;;;5018767;28;20337;-81
2023/05/05 12:19:07;;;;;;;9.35;5.32;;;22.70;84.40;;;;;;5007866;28;20346;-80
2023/05/05 12:21:34;;;;;;;5.80;2.53;;;22.30;85.20;;;;;;5016062;28;20041;-80
2023/05/05 12:24:00;;;;;;;7.68;3.10;;;21.30;90.40;;;;;;5016610;28;20052;-81
2023/05/05 12:26:27;;;;;;;10.10;2.45;;;20.10;96.60;;;;;;5000250;28;20041;-80
2023/05/05 12:28:54;;;;;;;7.07;2.47;;;19.50;97.40;;;;;;5015788;28;20045;-80
2023/05/05 12:31:20;;;;;;;9.18;3.42;;;19.30;99.90;;;;;;4995825;28;20144;-81
2023/05/05 12:33:47;;;;;;;12.27;3.47;;;19.40;99.90;;;;;;5015601;28;20064;-81
2023/05/05 12:36:14;;;;;;;8.45;3.60;;;19.70;99.90;;;;;;5002114;28;20057;-81
2023/05/05 12:38:40;;;;;;;5.45;3.58;;;19.70;99.90;;;;;;5016867;28;20559;-81
2023/05/05 12:41:06;;;;;;;6.13;3.75;;;19.70;99.90;;;;;;5004616;28;20029;-81
2023/05/05 12:43:33;;;;;;;7.43;3.10;;;19.70;99.90;;;;;;5004142;28;20025;-81
2023/05/05 12:46:11;;;;;;;6.47;3.35;;;19.80;99.90;;;;;;5006291;28;20029;-81
2023/05/05 12:48:39;;;;;;;4.72;2.83;;;19.80;99.90;;;;;;5017925;28;20033;-88
2023/05/05 12:51:19;;;;;;;6.57;2.72;;;19.80;99.90;;;;;;5027520;28;20029;-84